Time;durP1;ratioP1;P1;durP2;ratioP2;P2;SDS_P1;SDS_P2;PMS_P1;PMS_P2;Temp;Humidity;BMP_temperature;BMP_pressure;BME280_temperature;BME280_humidity;BME280_pressure;Samples;Min_cycle;Max_cycle;Signal;HPM_P1;HPM_P2
2022/11/03 00:01:13;;;;;;;81.78;52.78;;;11.40;99.90;;;;;;4997931;28;20125;-76
2022/11/03 00:03:40;;;;;;;74.45;46.25;;;11.20;99.90;;;;;;4998390;28;20174;-76
2022/11/03 00:06:08;;;;;;;61.72;39.67;;;11.20;99.90;;;;;;4989607;28;20073;-75
2022/11/03 00:08:40;;;;;;;67.82;42.85;;;11.10;99.90;;;;;;4986142;28;20081;-75
2022/11/03 00:11:10;;;;;;;67.93;44.80;;;11.10;99.90;;;;;;4968711;28;20057;-76
2022/11/03 00:13:38;;;;;;;82.43;52.95;;;11.00;99.90;;;;;;4985523;28;20038;-75
2022/11/03 00:16:07;;;;;;;82.28;52.65;;;10.90;99.90;;;;;;4985852;28;20041;-76
2022/11/03 00:18:35;;;;;;;98.47;61.22;;;10.90;99.90;;;;;;4985963;28;20035;-75
2022/11/03 00:21:04;;;;;;;99.22;63.22;;;10.90;99.90;;;;;;4985773;28;20057;-75
2022/11/03 00:23:32;;;;;;;93.30;62.42;;;10.80;99.90;;;;;;4986917;28;20047;-76
2022/11/03 00:26:12;;;;;;;104.13;65.28;;;10.80;99.90;;;;;;4983951;28;20057;-75
2022/11/03 00:28:40;;;;;;;105.10;65.05;;;10.80;99.90;;;;;;4985122;28;20042;-76
2022/11/03 00:31:10;;;;;;;101.68;61.92;;;10.80;99.90;;;;;;4969243;28;20402;-76
2022/11/03 00:33:38;;;;;;;100.13;59.90;;;10.70;99.90;;;;;;4985731;28;20044;-75
2022/11/03 00:36:06;;;;;;;92.60;58.78;;;10.70;99.90;;;;;;4970012;28;20406;-76
2022/11/03 00:38:34;;;;;;;87.22;55.08;;;10.70;99.90;;;;;;4984650;28;20047;-76
2022/11/03 00:41:03;;;;;;;85.82;54.00;;;10.60;99.90;;;;;;4985207;28;20042;-76
2022/11/03 00:43:35;;;;;;;84.15;49.70;;;10.60;99.90;;;;;;5000998;28;20509;-75
2022/11/03 00:46:03;;;;;;;94.13;55.75;;;10.50;99.90;;;;;;4980182;28;20387;-76
2022/11/03 00:48:32;;;;;;;82.03;51.00;;;10.50;99.90;;;;;;4998461;28;20042;-75
2022/11/03 00:51:08;;;;;;;84.70;50.10;;;10.40;99.90;;;;;;4980717;28;20448;-75
2022/11/03 00:53:37;;;;;;;75.45;47.78;;;10.40;99.90;;;;;;4986242;28;20034;-75
2022/11/03 00:56:05;;;;;;;76.57;48.20;;;10.40;99.90;;;;;;4984796;28;20096;-76
2022/11/03 00:58:34;;;;;;;62.17;40.80;;;10.40;99.90;;;;;;4984837;28;20054;-76
2022/11/03 01:01:02;;;;;;;66.03;41.38;;;10.30;99.90;;;;;;4985453;28;20113;-75
2022/11/03 01:03:31;;;;;;;68.05;43.47;;;10.30;99.90;;;;;;4985620;28;20042;-75
2022/11/03 01:08:43;;;;;;;63.95;41.22;;;10.30;99.90;;;;;;4984772;28;20081;-74
2022/11/03 01:13:59;;;;;;;61.55;38.92;;;10.20;99.90;;;;;;4985687;28;20055;-76
2022/11/03 01:16:26;;;;;;;75.85;50.15;;;10.20;99.90;;;;;;4985826;28;20042;-76
2022/11/03 01:18:55;;;;;;;67.38;42.25;;;10.20;99.90;;;;;;4985025;28;20398;-75
2022/11/03 01:21:22;;;;;;;54.88;36.17;;;10.20;99.90;;;;;;4986423;28;20038;-75
2022/11/03 01:23:49;;;;;;;50.63;32.83;;;10.10;99.90;;;;;;4988292;28;20041;-76
2022/11/03 01:26:17;;;;;;;49.53;34.60;;;10.10;99.90;;;;;;4989243;28;20046;-75
2022/11/03 01:28:45;;;;;;;49.83;33.33;;;10.10;99.90;;;;;;4988369;28;20038;-76
2022/11/03 01:31:16;;;;;;;54.28;36.25;;;10.10;99.90;;;;;;4988754;28;20110;-75
2022/11/03 01:33:45;;;;;;;50.25;34.00;;;10.00;99.90;;;;;;4988582;28;20041;-75
2022/11/03 01:36:13;;;;;;;57.03;37.15;;;10.00;99.90;;;;;;4987742;28;20661;-75
2022/11/03 01:38:41;;;;;;;61.03;38.50;;;9.90;99.90;;;;;;4987937;28;20047;-75
2022/11/03 01:41:10;;;;;;;59.72;37.63;;;9.90;99.90;;;;;;4989021;28;20052;-75
2022/11/03 01:43:39;;;;;;;60.65;37.50;;;9.80;99.90;;;;;;4988473;28;20499;-76
2022/11/03 01:46:16;;;;;;;53.83;36.20;;;9.80;99.90;;;;;;4988418;28;20049;-76
2022/11/03 01:48:48;;;;;;;51.45;35.53;;;9.90;99.90;;;;;;4987766;28;20045;-75
2022/11/03 01:51:20;;;;;;;48.47;32.28;;;9.80;99.90;;;;;;4971873;28;20070;-76
2022/11/03 01:53:49;;;;;;;47.58;30.50;;;9.80;99.90;;;;;;4988490;28;20038;-76
2022/11/03 01:56:17;;;;;;;45.53;30.08;;;9.60;99.90;;;;;;5000314;28;20049;-76
2022/11/03 01:58:48;;;;;;;41.40;26.05;;;9.60;99.90;;;;;;5001762;28;20045;-76
2022/11/03 02:01:17;;;;;;;41.88;25.35;;;9.50;99.90;;;;;;4991839;28;20077;-76
2022/11/03 02:03:49;;;;;;;40.80;28.27;;;9.50;99.90;;;;;;4989433;28;20046;-76
2022/11/03 02:06:18;;;;;;;42.22;27.70;;;9.60;99.90;;;;;;4990728;28;20045;-76
2022/11/03 02:08:49;;;;;;;44.55;27.50;;;9.50;99.90;;;;;;4990562;28;20047;-76
2022/11/03 02:14:01;;;;;;;52.83;31.33;;;9.50;99.90;;;;;;4988906;28;20042;-76
2022/11/03 02:16:32;;;;;;;48.45;31.45;;;9.50;99.90;;;;;;4989809;28;20120;-76
2022/11/03 02:19:02;;;;;;;48.05;32.45;;;9.40;99.90;;;;;;4987043;28;20509;-76
2022/11/03 02:21:34;;;;;;;55.80;33.67;;;9.40;99.90;;;;;;4988535;28;20046;-75
2022/11/03 02:24:10;;;;;;;49.72;30.75;;;9.40;99.90;;;;;;4990795;28;20132;-74
2022/11/03 02:26:40;;;;;;;46.88;30.45;;;9.30;99.90;;;;;;4990561;28;20137;-76
2022/11/03 02:29:08;;;;;;;46.38;30.42;;;9.20;99.90;;;;;;4990710;28;20027;-77
2022/11/03 02:31:42;;;;;;;46.25;28.23;;;9.10;99.90;;;;;;4990486;28;20109;-76
2022/11/03 02:34:20;;;;;;;40.05;26.17;;;9.10;99.90;;;;;;4988019;28;20069;-76
2022/11/03 02:36:53;;;;;;;38.00;24.67;;;9.10;99.90;;;;;;4977574;28;20290;-76
2022/11/03 02:39:25;;;;;;;39.00;25.25;;;9.10;99.90;;;;;;4988951;28;20042;-75
2022/11/03 02:41:59;;;;;;;38.53;24.75;;;9.10;99.90;;;;;;4988049;28;20051;-75
2022/11/03 02:44:28;;;;;;;39.95;25.30;;;9.10;99.90;;;;;;4977621;28;20042;-75
2022/11/03 02:47:01;;;;;;;38.72;24.85;;;9.10;99.90;;;;;;4989637;28;20121;-75
2022/11/03 02:49:28;;;;;;;43.00;29.00;;;9.00;99.90;;;;;;4976812;28;20511;-75
2022/11/03 02:52:00;;;;;;;44.53;30.88;;;8.90;99.90;;;;;;4987965;28;20070;-75
2022/11/03 02:54:31;;;;;;;49.50;31.15;;;8.90;99.90;;;;;;4987909;28;20062;-76
2022/11/03 02:57:04;;;;;;;45.78;31.20;;;8.80;99.90;;;;;;4988667;28;20057;-75
2022/11/03 02:59:37;;;;;;;42.05;29.15;;;8.90;99.90;;;;;;4975159;28;20513;-75
2022/11/03 03:02:11;;;;;;;42.83;28.48;;;8.70;99.90;;;;;;4986029;28;20038;-75
2022/11/03 03:04:41;;;;;;;45.58;29.08;;;8.70;99.90;;;;;;4987447;28;20061;-75
2022/11/03 03:07:14;;;;;;;44.63;29.80;;;8.70;99.90;;;;;;4987254;28;20038;-75
2022/11/03 03:09:46;;;;;;;45.42;28.98;;;8.70;99.90;;;;;;4985366;28;20034;-75
2022/11/03 03:12:19;;;;;;;45.80;26.73;;;8.60;99.90;;;;;;4983396;28;20042;-75
2022/11/03 03:14:48;;;;;;;39.95;25.25;;;8.50;99.90;;;;;;4986132;28;20038;-75
2022/11/03 03:17:22;;;;;;;35.55;23.75;;;8.50;99.90;;;;;;4987168;28;20046;-75
2022/11/03 03:19:56;;;;;;;33.60;23.05;;;8.60;99.90;;;;;;4987248;28;20048;-75
2022/11/03 03:22:28;;;;;;;38.22;26.23;;;8.60;99.90;;;;;;4986109;28;20034;-75
2022/11/03 03:25:03;;;;;;;41.42;27.35;;;8.60;99.90;;;;;;4986049;28;20097;-75
2022/11/03 03:27:34;;;;;;;42.95;26.92;;;8.60;99.90;;;;;;4985952;28;20045;-75
2022/11/03 03:30:07;;;;;;;37.38;25.05;;;8.60;99.90;;;;;;4987605;28;20042;-75
2022/11/03 03:32:38;;;;;;;37.70;24.95;;;8.60;99.90;;;;;;4986804;28;20470;-75
2022/11/03 03:35:09;;;;;;;42.92;25.95;;;8.60;99.90;;;;;;4986501;28;20042;-76
2022/11/03 03:37:41;;;;;;;37.00;23.90;;;8.60;99.90;;;;;;4986444;28;20042;-76
2022/11/03 03:40:12;;;;;;;35.67;23.33;;;8.50;99.90;;;;;;4984966;28;20046;-76
2022/11/03 03:42:43;;;;;;;38.85;24.20;;;8.40;99.90;;;;;;4985121;28;20047;-76
2022/11/03 03:45:13;;;;;;;42.88;26.13;;;8.40;99.90;;;;;;4986228;28;20441;-76
2022/11/03 03:47:40;;;;;;;42.78;28.83;;;8.30;99.90;;;;;;4986780;28;20042;-76
2022/11/03 03:50:08;;;;;;;46.85;29.35;;;8.30;99.90;;;;;;4986154;28;20042;-76
2022/11/03 03:52:37;;;;;;;47.75;31.02;;;8.30;99.90;;;;;;4985356;28;20548;-75
2022/11/03 03:55:06;;;;;;;44.95;30.77;;;8.20;99.90;;;;;;4986128;28;20046;-76
2022/11/03 03:57:33;;;;;;;73.35;42.67;;;8.20;99.90;;;;;;4970214;28;20060;-76
2022/11/03 04:00:03;;;;;;;53.20;33.88;;;8.30;99.90;;;;;;4996080;28;20047;-76
2022/11/03 04:02:39;;;;;;;59.50;35.22;;;8.30;99.90;;;;;;4985744;28;20050;-76
2022/11/03 04:05:07;;;;;;;50.47;32.28;;;8.40;99.90;;;;;;4970031;28;20053;-76
2022/11/03 04:07:49;;;;;;;49.45;28.35;;;8.50;99.90;;;;;;4969878;28;20073;-76
2022/11/03 04:10:17;;;;;;;44.28;26.85;;;8.50;99.90;;;;;;4969010;28;20125;-75
2022/11/03 04:23:46;;;;;;;41.30;26.33;;;8.50;99.90;;;;;;4969812;28;20034;-75
2022/11/03 04:26:15;;;;;;;39.65;25.60;;;8.50;99.90;;;;;;4970280;28;20046;-75
2022/11/03 04:28:43;;;;;;;48.25;28.67;;;8.50;99.90;;;;;;4970001;28;20134;-75
2022/11/03 04:31:13;;;;;;;43.25;26.88;;;8.40;99.90;;;;;;4969578;28;20069;-75
2022/11/03 04:33:41;;;;;;;39.65;26.48;;;8.40;99.90;;;;;;4970146;28;20085;-75
2022/11/03 04:36:13;;;;;;;41.00;26.00;;;8.40;99.90;;;;;;4969699;28;20043;-75
2022/11/03 04:38:43;;;;;;;49.72;27.83;;;8.40;99.90;;;;;;4968975;28;20049;-75
2022/11/03 04:41:15;;;;;;;66.80;32.95;;;8.40;99.90;;;;;;4968356;28;20051;-75
2022/11/03 04:43:43;;;;;;;64.70;32.42;;;8.30;99.90;;;;;;4969919;28;20570;-75
2022/11/03 04:46:15;;;;;;;61.95;32.22;;;8.20;99.90;;;;;;4969904;28;20051;-75
2022/11/03 04:48:46;;;;;;;70.80;35.47;;;8.10;99.90;;;;;;4952726;28;20043;-76
2022/11/03 04:51:16;;;;;;;70.80;35.58;;;8.10;99.90;;;;;;4951584;28;20043;-75
2022/11/03 04:53:50;;;;;;;63.95;32.85;;;8.10;99.90;;;;;;4969386;28;20402;-75
2022/11/03 04:56:22;;;;;;;55.25;28.73;;;8.10;99.90;;;;;;4972904;28;20126;-75
2022/11/03 04:58:49;;;;;;;61.80;31.15;;;8.10;99.90;;;;;;4974056;28;20469;-75
2022/11/03 05:01:20;;;;;;;68.00;35.20;;;8.10;99.90;;;;;;4974446;28;20046;-75
2022/11/03 05:03:49;;;;;;;66.82;36.17;;;8.00;99.90;;;;;;4963656;28;20073;-75
2022/11/03 05:06:19;;;;;;;74.28;35.53;;;8.00;99.90;;;;;;4988874;28;20430;-75
2022/11/03 05:08:51;;;;;;;66.88;34.70;;;8.00;99.90;;;;;;4972867;28;20051;-74
2022/11/03 05:11:24;;;;;;;63.42;34.75;;;8.00;99.90;;;;;;4972515;28;20133;-74
2022/11/03 05:13:52;;;;;;;58.30;33.25;;;8.10;99.90;;;;;;4988736;28;20038;-76
2022/11/03 05:16:21;;;;;;;63.78;33.05;;;8.10;99.90;;;;;;4987961;28;20490;-75
2022/11/03 05:18:50;;;;;;;48.35;28.02;;;8.10;99.90;;;;;;4988271;28;20446;-76
2022/11/03 05:21:21;;;;;;;49.92;28.75;;;8.20;99.90;;;;;;4989056;28;20118;-75
2022/11/03 05:23:52;;;;;;;44.45;26.67;;;8.20;99.90;;;;;;4989245;28;20574;-75
2022/11/03 05:26:22;;;;;;;53.22;28.30;;;8.20;99.90;;;;;;4971696;28;20607;-75
2022/11/03 05:28:54;;;;;;;59.58;33.00;;;8.20;99.90;;;;;;4990910;28;20141;-75
2022/11/03 05:31:26;;;;;;;52.97;31.00;;;8.20;99.90;;;;;;5000161;28;20042;-74
2022/11/03 05:33:56;;;;;;;56.70;32.42;;;8.20;99.90;;;;;;4975093;28;20074;-75
2022/11/03 05:36:26;;;;;;;59.60;35.00;;;8.10;99.90;;;;;;4980942;28;20043;-75
2022/11/03 05:38:58;;;;;;;53.22;32.80;;;8.10;99.90;;;;;;4990532;28;20042;-75
2022/11/03 05:41:28;;;;;;;60.95;36.58;;;8.10;99.90;;;;;;4987702;28;20038;-75
2022/11/03 05:43:57;;;;;;;59.67;34.97;;;8.00;99.90;;;;;;4987925;28;20060;-74
2022/11/03 05:46:29;;;;;;;62.55;36.67;;;8.00;99.90;;;;;;4987529;28;20414;-75
2022/11/03 05:48:57;;;;;;;60.53;35.45;;;8.00;99.90;;;;;;4988103;28;20067;-75
2022/11/03 05:51:28;;;;;;;65.63;34.75;;;8.00;99.90;;;;;;4987725;28;20051;-75
2022/11/03 05:53:58;;;;;;;66.65;33.88;;;8.00;99.90;;;;;;4984151;28;20053;-76
2022/11/03 05:56:26;;;;;;;62.30;36.90;;;8.10;99.90;;;;;;4970987;28;20061;-75
2022/11/03 05:58:55;;;;;;;69.65;39.25;;;8.10;99.90;;;;;;4986293;28;20053;-76
2022/11/03 06:01:28;;;;;;;66.53;38.10;;;8.00;99.90;;;;;;4987849;28;20050;-74
2022/11/03 06:03:56;;;;;;;70.85;42.65;;;8.00;99.90;;;;;;4987798;28;20061;-74
2022/11/03 06:06:28;;;;;;;71.88;41.30;;;8.00;99.90;;;;;;4987812;28;20046;-75
2022/11/03 06:08:57;;;;;;;74.40;41.00;;;8.10;99.90;;;;;;4987708;28;20045;-74
2022/11/03 06:11:28;;;;;;;79.72;44.72;;;8.20;99.90;;;;;;4981506;28;20057;-75
2022/11/03 06:13:57;;;;;;;89.95;47.85;;;8.20;99.90;;;;;;4963956;28;20141;-76
2022/11/03 06:16:39;;;;;;;87.43;46.53;;;8.30;99.90;;;;;;4987510;28;20041;-75
2022/11/03 06:19:21;;;;;;;78.53;44.13;;;8.40;99.90;;;;;;4986417;28;20073;-75
2022/11/03 06:21:50;;;;;;;72.60;42.63;;;8.60;99.90;;;;;;4989811;28;20035;-76
2022/11/03 06:24:20;;;;;;;79.90;44.15;;;8.70;99.90;;;;;;4972465;28;20117;-75
2022/11/03 06:26:49;;;;;;;79.80;44.15;;;8.70;99.90;;;;;;4998148;28;20050;-75
2022/11/03 06:29:18;;;;;;;83.00;41.22;;;8.70;99.90;;;;;;4989467;28;20039;-75
2022/11/03 06:31:48;;;;;;;69.80;41.92;;;8.80;99.90;;;;;;4975791;28;20162;-75
2022/11/03 06:34:45;;;;;;;94.65;33.28;;;8.90;99.90;;;;;;4987131;28;20042;-75
2022/11/03 06:37:22;;;;;;;63.20;36.15;;;9.10;99.90;;;;;;4983209;28;20058;-75
2022/11/03 06:39:51;;;;;;;71.68;36.50;;;9.30;99.90;;;;;;4985854;28;20046;-75
2022/11/03 06:42:21;;;;;;;63.20;34.20;;;9.40;99.90;;;;;;4986675;28;20495;-75
2022/11/03 06:44:50;;;;;;;74.43;34.05;;;9.40;99.90;;;;;;4986770;28;20446;-75
2022/11/03 06:47:23;;;;;;;74.15;42.75;;;9.30;99.90;;;;;;4986706;28;20050;-75
2022/11/03 06:49:52;;;;;;;95.35;43.00;;;9.40;99.90;;;;;;4986127;28;20125;-74
2022/11/03 06:52:28;;;;;;;74.38;36.78;;;9.40;99.90;;;;;;4986259;28;20035;-75
2022/11/03 06:55:02;;;;;;;80.78;40.25;;;9.30;99.90;;;;;;4985787;28;20049;-77
2022/11/03 06:57:35;;;;;;;68.50;36.03;;;9.40;99.90;;;;;;4985349;28;20645;-77
2022/11/03 07:00:02;;;;;;;62.03;32.22;;;9.50;99.90;;;;;;4985436;28;20046;-75
2022/11/03 07:02:54;;;;;;;60.30;31.90;;;9.70;99.90;;;;;;4975607;28;20058;-75
2022/11/03 07:05:24;;;;;;;57.00;31.27;;;9.90;99.90;;;;;;4987381;28;20474;-74
2022/11/03 07:07:55;;;;;;;64.72;34.60;;;10.10;99.90;;;;;;4985918;28;20466;-75
2022/11/03 07:10:24;;;;;;;68.95;34.55;;;10.30;99.90;;;;;;4984687;28;20045;-74
2022/11/03 07:12:52;;;;;;;54.72;30.85;;;10.40;99.90;;;;;;4974286;28;20102;-74
2022/11/03 07:15:31;;;;;;;52.78;29.45;;;10.50;99.90;;;;;;4985767;28;20042;-74
2022/11/03 07:18:00;;;;;;;40.63;26.65;;;10.60;99.90;;;;;;4985496;28;20054;-74
2022/11/03 07:20:28;;;;;;;47.92;25.92;;;10.60;99.90;;;;;;4975280;28;20042;-75
2022/11/03 07:23:00;;;;;;;39.42;24.30;;;10.80;99.90;;;;;;4984956;28;20047;-75
2022/11/03 07:25:27;;;;;;;47.35;23.88;;;10.80;99.90;;;;;;4986265;28;20042;-75
2022/11/03 07:27:56;;;;;;;47.55;27.08;;;11.00;99.90;;;;;;4986277;28;20043;-75
2022/11/03 07:30:26;;;;;;;45.80;27.42;;;11.20;99.90;;;;;;4985651;28;20411;-75
2022/11/03 07:32:54;;;;;;;51.67;29.95;;;11.20;99.90;;;;;;4973074;28;20061;-74
2022/11/03 07:35:31;;;;;;;51.55;27.77;;;11.40;99.90;;;;;;4985088;28;20039;-74
2022/11/03 07:38:02;;;;;;;52.92;28.85;;;11.60;99.90;;;;;;4985003;28;20034;-75
2022/11/03 07:40:33;;;;;;;50.10;27.42;;;11.70;99.90;;;;;;4986169;28;20133;-74
2022/11/03 07:43:08;;;;;;;45.05;28.67;;;11.80;99.90;;;;;;4986573;28;20053;-74
2022/11/03 07:45:40;;;;;;;49.03;29.58;;;11.90;99.90;;;;;;4985923;28;20035;-74
2022/11/03 07:48:22;;;;;;;50.80;30.83;;;12.00;99.90;;;;;;4986045;28;20125;-74
2022/11/03 07:50:53;;;;;;;55.90;33.60;;;12.10;99.90;;;;;;4985614;28;20184;-74
2022/11/03 07:53:25;;;;;;;61.25;37.15;;;12.30;99.90;;;;;;4985874;28;20096;-74
2022/11/03 07:55:55;;;;;;;72.03;41.58;;;12.50;99.90;;;;;;4985877;28;20169;-75
2022/11/03 07:58:26;;;;;;;85.97;50.03;;;12.70;99.90;;;;;;4985042;28;20045;-75
2022/11/03 08:01:00;;;;;;;134.75;53.92;;;13.00;99.90;;;;;;4984913;28;20044;-74
2022/11/03 08:03:43;;;;;;;86.47;50.95;;;13.10;99.90;;;;;;4984796;28;20062;-74
2022/11/03 08:06:12;;;;;;;86.35;50.60;;;13.30;99.90;;;;;;4985511;28;20049;-73
2022/11/03 08:08:39;;;;;;;90.13;50.83;;;13.40;99.90;;;;;;4985900;28;20042;-74
2022/11/03 08:11:07;;;;;;;93.57;52.28;;;13.60;99.90;;;;;;4974378;28;20042;-75
2022/11/03 08:13:34;;;;;;;92.57;54.83;;;13.60;99.90;;;;;;4986437;28;20047;-74
2022/11/03 08:16:01;;;;;;;97.32;52.63;;;13.70;99.90;;;;;;4984869;28;20044;-74
2022/11/03 08:18:28;;;;;;;84.85;51.92;;;13.70;99.90;;;;;;4984849;28;20050;-75
2022/11/03 08:20:56;;;;;;;86.65;52.10;;;13.70;99.90;;;;;;4973302;28;20058;-74
2022/11/03 08:23:24;;;;;;;85.97;53.28;;;13.80;99.90;;;;;;4985569;28;20446;-75
2022/11/03 08:25:51;;;;;;;108.25;54.90;;;13.90;99.90;;;;;;4985562;28;20042;-75
2022/11/03 08:28:19;;;;;;;93.53;53.85;;;14.00;99.90;;;;;;4987085;28;20097;-75
2022/11/03 08:30:46;;;;;;;91.15;54.60;;;14.00;99.90;;;;;;4988278;28;20043;-77
2022/11/03 08:33:13;;;;;;;76.47;49.60;;;14.00;99.90;;;;;;4989781;28;20049;-75
2022/11/03 08:35:40;;;;;;;79.43;46.90;;;14.00;99.90;;;;;;4989996;28;20120;-75
2022/11/03 08:38:07;;;;;;;75.57;45.85;;;14.00;99.90;;;;;;4989958;28;20046;-75
2022/11/03 08:40:36;;;;;;;62.33;37.30;;;14.00;99.90;;;;;;4990741;28;20462;-75
2022/11/03 08:43:05;;;;;;;81.72;42.13;;;14.10;99.90;;;;;;4992200;28;20494;-75
2022/11/03 08:45:32;;;;;;;210.45;54.60;;;14.20;99.90;;;;;;4977266;28;20132;-75
2022/11/03 08:47:59;;;;;;;237.90;55.08;;;14.40;99.90;;;;;;4989111;28;20053;-75
2022/11/03 08:50:26;;;;;;;107.45;45.70;;;14.50;99.90;;;;;;4988441;28;20042;-74
2022/11/03 08:52:54;;;;;;;309.13;61.13;;;14.70;99.90;;;;;;4989945;28;20073;-75
2022/11/03 08:55:21;;;;;;;485.85;72.40;;;14.90;99.90;;;;;;4989178;28;20039;-74
2022/11/03 08:57:49;;;;;;;241.75;56.40;;;15.00;99.90;;;;;;4987999;28;20040;-74
2022/11/03 09:00:17;;;;;;;120.10;45.13;;;15.20;99.90;;;;;;4988531;28;20038;-74
2022/11/03 09:02:45;;;;;;;60.17;36.03;;;15.30;99.90;;;;;;4988869;28;20046;-74
2022/11/03 09:05:13;;;;;;;504.05;80.20;;;15.40;99.90;;;;;;4989252;28;20038;-75
2022/11/03 09:07:41;;;;;;;423.08;74.88;;;15.50;99.90;;;;;;4989176;28;20047;-74
2022/11/03 09:10:10;;;;;;;212.45;46.88;;;15.60;99.90;;;;;;4973666;28;20046;-75
2022/11/03 09:12:38;;;;;;;82.40;34.28;;;15.70;99.90;;;;;;4988306;28;20053;-73
2022/11/03 09:15:08;;;;;;;105.85;36.75;;;15.90;99.90;;;;;;4989057;28;20069;-74
2022/11/03 09:17:35;;;;;;;85.93;33.83;;;16.00;99.90;;;;;;4989363;28;20382;-76
2022/11/03 09:20:02;;;;;;;60.47;32.45;;;16.20;99.90;;;;;;4988962;28;20137;-74
2022/11/03 09:22:29;;;;;;;68.40;31.33;;;16.20;99.90;;;;;;4988229;28;20128;-74
2022/11/03 09:24:57;;;;;;;50.58;25.67;;;16.30;99.90;;;;;;4988316;28;20046;-73
2022/11/03 09:27:24;;;;;;;53.13;26.98;;;16.40;99.90;;;;;;4988349;28;20054;-73
2022/11/03 09:29:51;;;;;;;62.88;27.17;;;16.50;99.90;;;;;;4988786;28;20042;-74
2022/11/03 09:32:20;;;;;;;44.67;23.75;;;16.60;99.90;;;;;;4989194;28;20034;-74
2022/11/03 09:34:47;;;;;;;41.33;24.80;;;16.70;99.90;;;;;;4988737;28;20070;-75
2022/11/03 09:37:14;;;;;;;34.38;22.48;;;16.80;99.90;;;;;;4988464;28;20045;-74
2022/11/03 09:39:42;;;;;;;39.72;24.60;;;17.00;99.90;;;;;;4987089;28;20101;-73
2022/11/03 09:42:11;;;;;;;43.72;24.67;;;17.10;99.90;;;;;;4987388;28;20042;-74
2022/11/03 09:44:38;;;;;;;37.60;24.38;;;17.20;99.90;;;;;;4976997;28;20445;-74
2022/11/03 09:47:07;;;;;;;36.17;21.65;;;17.30;99.90;;;;;;4988432;28;20055;-74
2022/11/03 09:49:36;;;;;;;35.85;22.08;;;17.50;99.90;;;;;;4988440;28;20544;-74
2022/11/03 09:52:05;;;;;;;44.70;23.58;;;17.60;99.90;;;;;;4987272;28;20047;-74
2022/11/03 09:54:32;;;;;;;33.53;19.05;;;17.70;99.90;;;;;;4987303;28;20577;-74
2022/11/03 09:57:11;;;;;;;25.65;15.52;;;17.80;99.90;;;;;;4977248;28;20046;-74
2022/11/03 09:59:40;;;;;;;25.52;14.75;;;17.80;99.90;;;;;;4988969;28;20081;-74
2022/11/03 10:02:20;;;;;;;29.05;15.98;;;18.00;99.90;;;;;;4988390;28;20126;-74
2022/11/03 10:04:49;;;;;;;30.75;18.27;;;18.20;99.90;;;;;;4987366;28;20055;-75
2022/11/03 10:07:16;;;;;;;35.20;20.45;;;18.20;99.90;;;;;;4987228;28;20050;-74
2022/11/03 10:09:47;;;;;;;31.15;19.58;;;18.30;99.90;;;;;;4987280;28;20125;-74
2022/11/03 10:12:14;;;;;;;22.90;14.32;;;18.40;99.90;;;;;;4988175;28;20050;-73
2022/11/03 10:14:44;;;;;;;26.35;15.73;;;18.50;99.90;;;;;;4988087;28;20038;-74
2022/11/03 10:17:16;;;;;;;20.98;12.23;;;18.70;99.90;;;;;;4987940;28;20056;-74
2022/11/03 10:19:43;;;;;;;22.15;10.80;;;18.70;99.90;;;;;;4986915;28;20089;-74
2022/11/03 10:22:12;;;;;;;16.73;9.45;;;18.80;99.90;;;;;;4986912;28;20049;-74
2022/11/03 10:24:39;;;;;;;19.77;10.40;;;18.90;99.90;;;;;;4989483;28;20146;-74
2022/11/03 10:27:21;;;;;;;18.55;11.23;;;18.90;99.90;;;;;;4989066;28;20581;-73
2022/11/03 10:30:06;;;;;;;18.25;9.40;;;19.00;99.90;;;;;;4976740;28;20395;-73
2022/11/03 10:32:34;;;;;;;21.67;12.05;;;19.00;99.90;;;;;;4988508;28;20042;-74
2022/11/03 10:35:02;;;;;;;17.63;10.52;;;18.90;99.90;;;;;;4991508;28;20046;-74
2022/11/03 10:37:31;;;;;;;32.72;16.60;;;19.00;99.90;;;;;;4980126;28;20057;-74
2022/11/03 10:39:59;;;;;;;26.38;15.82;;;19.00;99.90;;;;;;4990735;28;20047;-75
2022/11/03 10:42:29;;;;;;;18.30;11.55;;;19.20;99.90;;;;;;4993084;28;20038;-74
2022/11/03 10:45:12;;;;;;;15.48;8.50;;;19.20;99.90;;;;;;4991730;28;20251;-74
2022/11/03 10:47:39;;;;;;;17.08;9.27;;;19.30;99.90;;;;;;4992202;28;20117;-74
2022/11/03 10:50:21;;;;;;;15.02;8.43;;;19.30;99.90;;;;;;4986646;28;20121;-75
2022/11/03 10:52:50;;;;;;;22.83;13.13;;;19.40;99.90;;;;;;4986964;28;20105;-75
2022/11/03 10:55:19;;;;;;;41.80;15.48;;;19.50;99.90;;;;;;4987563;28;20043;-73
2022/11/03 10:57:46;;;;;;;14.02;8.48;;;19.50;99.90;;;;;;4987350;28;20046;-74
2022/11/03 11:00:15;;;;;;;23.33;11.45;;;19.50;99.90;;;;;;4986148;28;20115;-74
2022/11/03 11:02:44;;;;;;;17.38;7.43;;;19.50;99.90;;;;;;4986606;28;20054;-73
2022/11/03 11:05:15;;;;;;;16.23;7.55;;;19.60;99.90;;;;;;4986987;28;20042;-74
2022/11/03 11:07:44;;;;;;;20.95;10.27;;;19.70;99.90;;;;;;4986629;28;20128;-73
2022/11/03 11:10:17;;;;;;;15.65;8.35;;;19.90;99.70;;;;;;4986231;28;20057;-74
2022/11/03 11:13:24;;;;;;;20.73;8.75;;;20.00;98.20;;;;;;4986906;28;20093;-73
2022/11/03 11:15:53;;;;;;;26.33;11.38;;;20.20;97.20;;;;;;4985703;28;20048;-74
2022/11/03 11:19:01;;;;;;;14.45;7.47;;;20.40;96.10;;;;;;4985683;28;20050;-74
2022/11/03 11:22:10;;;;;;;25.58;12.23;;;20.60;94.60;;;;;;4985758;28;20142;-74
2022/11/03 11:24:58;;;;;;;23.63;13.98;;;20.80;93.90;;;;;;4986407;28;20042;-73
2022/11/03 11:27:56;;;;;;;18.92;10.02;;;21.00;92.20;;;;;;4985193;28;20121;-73
2022/11/03 11:34:13;;;;;;;17.60;7.63;;;21.30;91.10;;;;;;4964305;28;20081;-75
2022/11/03 11:36:42;;;;;;;21.17;11.63;;;21.40;90.80;;;;;;4984748;28;20044;-75
2022/11/03 11:39:11;;;;;;;23.75;13.10;;;21.40;90.40;;;;;;4985778;28;20057;-75
2022/11/03 11:42:07;;;;;;;25.88;14.95;;;21.30;90.30;;;;;;4985973;28;20117;-75
2022/11/03 11:44:53;;;;;;;16.48;6.70;;;21.20;90.10;;;;;;4985457;28;20453;-75
2022/11/03 11:47:49;;;;;;;18.73;6.22;;;21.20;89.80;;;;;;4985507;28;20050;-75
2022/11/03 11:50:30;;;;;;;16.73;6.93;;;21.20;88.70;;;;;;4966572;28;20049;-74
2022/11/03 11:53:00;;;;;;;16.83;8.00;;;21.20;87.90;;;;;;4986969;28;20046;-75
2022/11/03 11:55:38;;;;;;;17.38;8.10;;;21.20;87.80;;;;;;4985212;28;20042;-75
2022/11/03 11:58:14;;;;;;;15.70;7.93;;;21.30;86.70;;;;;;4985428;28;20081;-75
2022/11/03 12:00:53;;;;;;;16.48;6.95;;;21.40;85.90;;;;;;4984818;28;20077;-75
2022/11/03 12:03:28;;;;;;;20.80;6.43;;;21.50;85.00;;;;;;4984086;28;20060;-75
2022/11/03 12:05:55;;;;;;;13.68;5.70;;;21.60;84.90;;;;;;4985677;28;20513;-75
2022/11/03 12:08:28;;;;;;;19.02;7.90;;;21.60;83.10;;;;;;4984947;28;20048;-75
2022/11/03 12:10:57;;;;;;;20.80;8.82;;;21.70;82.40;;;;;;4982803;28;20438;-75
2022/11/03 12:13:51;;;;;;;18.38;7.07;;;21.60;81.80;;;;;;4984210;28;20053;-75
2022/11/03 12:16:38;;;;;;;17.15;6.85;;;21.30;81.20;;;;;;4972901;28;20064;-80
2022/11/03 12:19:36;;;;;;;15.13;6.38;;;21.20;81.40;;;;;;4985462;28;20046;-74
2022/11/03 12:22:04;;;;;;;17.52;7.93;;;21.00;83.10;;;;;;4969635;28;20050;-75
2022/11/03 12:24:49;;;;;;;17.20;7.97;;;20.80;84.90;;;;;;4971335;28;20046;-74
2022/11/03 12:27:42;;;;;;;15.35;7.43;;;20.70;89.70;;;;;;4969706;28;20135;-74
2022/11/03 12:30:15;;;;;;;17.65;8.43;;;20.50;91.10;;;;;;4974362;28;20506;-75
2022/11/03 12:32:44;;;;;;;13.57;7.85;;;20.40;91.80;;;;;;4970778;28;20071;-74
2022/11/03 12:35:13;;;;;;;13.52;8.68;;;20.30;92.30;;;;;;4981294;28;20042;-74
2022/11/03 12:37:41;;;;;;;16.80;9.52;;;20.30;92.80;;;;;;4978186;28;20045;-74
2022/11/03 12:40:11;;;;;;;14.85;8.85;;;20.30;93.10;;;;;;4978466;28;20049;-74
2022/11/03 12:42:38;;;;;;;27.50;16.67;;;20.40;93.20;;;;;;4978521;28;20069;-75
2022/11/03 12:45:07;;;;;;;30.52;16.20;;;20.50;93.40;;;;;;4979355;28;20047;-74
2022/11/03 12:47:34;;;;;;;17.50;10.32;;;20.70;93.50;;;;;;4981407;28;20038;-74
2022/11/03 12:50:03;;;;;;;13.40;8.30;;;20.80;92.80;;;;;;4980582;28;20473;-77
2022/11/03 12:52:31;;;;;;;19.17;10.27;;;20.90;92.60;;;;;;4978054;28;20395;-75
2022/11/03 12:54:58;;;;;;;15.25;8.75;;;20.90;92.70;;;;;;4980221;28;20133;-75
2022/11/03 12:57:25;;;;;;;13.32;8.02;;;21.10;92.50;;;;;;4979423;28;20053;-74
2022/11/03 12:59:53;;;;;;;14.13;8.55;;;20.80;92.20;;;;;;4967611;28;20050;-74
2022/11/03 13:02:20;;;;;;;15.13;9.52;;;20.70;92.70;;;;;;4980034;28;20140;-76
2022/11/03 13:04:47;;;;;;;17.13;8.77;;;20.70;93.00;;;;;;4963519;28;20133;-75
2022/11/03 13:10:57;;;;;;;15.70;9.00;;;20.40;93.40;;;;;;4963111;28;20066;-75
2022/11/03 13:13:24;;;;;;;14.88;8.88;;;20.40;94.10;;;;;;4962649;28;20376;-75
2022/11/03 13:15:52;;;;;;;17.85;10.45;;;20.30;94.40;;;;;;4962879;28;20039;-75
2022/11/03 13:18:19;;;;;;;17.70;10.30;;;20.30;94.70;;;;;;4965522;28;20050;-73